createdAt,value
2019-03-31T00:01:07.983Z,6.85
2019-03-31T00:03:28.044Z,6.82
2019-03-31T00:05:56.653Z,6.78
2019-03-31T00:08:25.155Z,6.68
2019-03-31T00:10:53.601Z,6.66
2019-03-31T00:13:22.081Z,6.67
2019-03-31T00:15:50.555Z,6.67
2019-03-31T00:18:19.062Z,6.68
2019-03-31T00:20:47.522Z,6.64
2019-03-31T00:23:16.130Z,6.64
2019-03-31T00:25:46.227Z,6.74
2019-03-31T00:28:14.731Z,6.59
2019-03-31T00:30:43.279Z,6.67
2019-03-31T00:33:11.756Z,6.57
2019-03-31T00:35:40.499Z,6.48
2019-03-31T00:38:09.166Z,6.50
2019-03-31T00:40:37.624Z,6.51
2019-03-31T00:43:06.123Z,6.53
2019-03-31T00:45:34.838Z,6.40
2019-03-31T00:48:03.383Z,6.33
2019-03-31T00:50:31.877Z,6.31
2019-03-31T00:53:00.352Z,6.27
2019-03-31T00:55:28.899Z,6.12
2019-03-31T00:57:57.362Z,6.15
2019-03-31T01:00:29.888Z,6.11
2019-03-31T01:02:59.000Z,6.04
2019-03-31T01:05:27.466Z,6.16
2019-03-31T01:07:56.273Z,6.09
2019-03-31T01:10:25.509Z,6.04
2019-03-31T01:12:54.136Z,5.98
2019-03-31T01:15:23.737Z,5.95
2019-03-31T01:17:52.373Z,5.93
2019-03-31T01:20:20.886Z,5.83
2019-03-31T01:22:49.670Z,5.74
2019-03-31T01:25:18.508Z,5.84
2019-03-31T01:27:47.007Z,5.70
2019-03-31T01:30:16.314Z,5.79
2019-03-31T01:32:45.071Z,5.79
2019-03-31T01:35:13.753Z,5.78
2019-03-31T01:37:42.232Z,5.74
2019-03-31T01:40:10.741Z,5.75
2019-03-31T01:42:39.304Z,5.69
2019-03-31T01:45:08.208Z,5.71
2019-03-31T01:47:36.767Z,5.85
2019-03-31T01:50:08.502Z,5.84
2019-03-31T01:52:36.982Z,5.91
2019-03-31T01:55:08.528Z,5.91
2019-03-31T01:57:37.096Z,6.07
2019-03-31T02:00:11.494Z,6.28
2019-03-31T02:02:39.998Z,5.97
2019-03-31T02:05:08.624Z,6.11
2019-03-31T02:07:37.182Z,6.44
2019-03-31T02:10:06.729Z,6.77
2019-03-31T02:12:35.252Z,6.75
2019-03-31T02:15:05.922Z,6.67
2019-03-31T02:17:34.443Z,6.68
2019-03-31T02:20:02.911Z,6.65
2019-03-31T02:22:31.394Z,6.91
2019-03-31T02:24:59.851Z,6.87
2019-03-31T02:27:28.321Z,6.92
2019-03-31T02:29:56.787Z,6.90
2019-03-31T02:32:25.325Z,6.86
2019-03-31T02:34:53.945Z,6.93
2019-03-31T02:37:22.425Z,6.79
2019-03-31T02:39:50.895Z,6.86
2019-03-31T02:42:19.342Z,7.02
2019-03-31T02:44:47.861Z,7.00
2019-03-31T02:47:16.307Z,6.84
2019-03-31T02:49:44.822Z,6.68
2019-03-31T02:52:13.302Z,6.72
2019-03-31T02:54:41.890Z,6.21
2019-03-31T02:57:10.651Z,6.44
2019-03-31T02:59:39.513Z,6.68
2019-03-31T03:02:09.526Z,6.85
2019-03-31T03:04:39.595Z,6.44
2019-03-31T03:07:08.622Z,6.48
2019-03-31T03:09:37.778Z,6.32
2019-03-31T03:12:09.249Z,6.36
2019-03-31T03:14:38.868Z,6.44
2019-03-31T03:17:07.328Z,6.49
2019-03-31T03:19:35.862Z,6.34
2019-03-31T03:22:04.299Z,6.38
2019-03-31T03:24:32.801Z,6.45
2019-03-31T03:27:01.258Z,6.31
2019-03-31T03:29:29.739Z,5.89
2019-03-31T03:31:58.199Z,6.01
2019-03-31T03:34:26.670Z,6.04
2019-03-31T03:36:55.115Z,6.01
2019-03-31T03:39:23.753Z,6.03
2019-03-31T03:41:52.207Z,6.16
2019-03-31T03:44:20.698Z,5.80
2019-03-31T03:46:49.141Z,5.79
2019-03-31T03:49:17.783Z,5.62
2019-03-31T03:51:46.300Z,5.47
2019-03-31T03:54:15.033Z,5.53
2019-03-31T03:56:43.503Z,5.67
2019-03-31T03:59:11.977Z,5.51
2019-03-31T04:01:40.456Z,5.47
2019-03-31T04:04:08.945Z,5.48
2019-03-31T04:06:37.383Z,5.49
2019-03-31T04:09:06.881Z,5.33
2019-03-31T04:11:35.417Z,5.47
2019-03-31T04:14:04.042Z,5.80
2019-03-31T04:16:32.535Z,5.49
2019-03-31T04:19:01.065Z,5.43
2019-03-31T04:21:29.542Z,5.26
2019-03-31T04:23:58.179Z,5.45
2019-03-31T04:26:26.701Z,5.25
2019-03-31T04:28:55.255Z,5.27
2019-03-31T04:31:23.778Z,5.31
2019-03-31T04:33:53.154Z,5.33
2019-03-31T04:36:21.764Z,5.29
2019-03-31T04:38:50.243Z,5.27
2019-03-31T04:41:18.716Z,5.04
2019-03-31T04:43:47.275Z,5.07
2019-03-31T04:46:15.813Z,5.47
2019-03-31T04:48:44.358Z,5.64
2019-03-31T04:51:12.849Z,5.44
2019-03-31T04:53:41.319Z,5.27
2019-03-31T04:56:09.847Z,5.48
2019-03-31T04:58:38.378Z,5.43
2019-03-31T05:01:06.839Z,5.74
2019-03-31T05:03:35.310Z,5.70
2019-03-31T05:06:03.775Z,5.81
2019-03-31T05:08:32.278Z,5.75
2019-03-31T05:11:00.722Z,5.92
2019-03-31T05:13:29.214Z,6.14
2019-03-31T05:15:57.648Z,5.84
2019-03-31T05:18:26.222Z,5.91
2019-03-31T05:20:54.676Z,6.08
2019-03-31T05:23:23.185Z,6.06
2019-03-31T05:25:51.643Z,6.24
2019-03-31T05:28:20.159Z,6.14
2019-03-31T05:30:48.601Z,6.40
2019-03-31T05:33:17.125Z,6.78
2019-03-31T05:35:45.718Z,6.87
2019-03-31T05:38:14.211Z,7.00
2019-03-31T05:40:42.694Z,6.95
2019-03-31T05:43:11.201Z,7.09
2019-03-31T05:45:39.673Z,7.18
2019-03-31T05:48:08.145Z,7.12
2019-03-31T05:50:36.614Z,7.23
2019-03-31T05:53:05.156Z,7.32
2019-03-31T05:55:33.600Z,7.34
2019-03-31T05:58:02.090Z,7.48
2019-03-31T06:00:36.323Z,7.46
2019-03-31T06:03:04.903Z,7.59
2019-03-31T06:05:33.364Z,7.59
2019-03-31T06:08:01.827Z,7.60
2019-03-31T06:10:30.294Z,7.53
2019-03-31T06:12:58.827Z,7.68
2019-03-31T06:15:27.268Z,7.65
2019-03-31T06:17:55.751Z,7.61
2019-03-31T06:20:24.191Z,7.56
2019-03-31T06:22:52.676Z,7.60
2019-03-31T06:25:21.138Z,7.68
2019-03-31T06:27:49.600Z,7.72
2019-03-31T06:30:18.111Z,7.76
2019-03-31T06:32:46.599Z,7.64
2019-03-31T06:35:15.047Z,7.64
2019-03-31T06:37:43.825Z,7.73
2019-03-31T06:40:12.557Z,7.63
2019-03-31T06:42:41.059Z,7.80
2019-03-31T06:45:09.676Z,7.57
2019-03-31T06:47:38.230Z,7.77
2019-03-31T06:50:08.273Z,8.05
2019-03-31T06:52:36.836Z,8.04
2019-03-31T06:55:07.179Z,8.26
2019-03-31T06:57:35.660Z,8.48
2019-03-31T07:00:06.063Z,8.45
2019-03-31T07:02:34.717Z,8.38
2019-03-31T07:05:04.454Z,8.57
2019-03-31T07:07:32.940Z,8.74
2019-03-31T07:10:01.409Z,8.90
2019-03-31T07:12:30.234Z,9.23
2019-03-31T07:14:58.726Z,9.18
2019-03-31T07:17:27.264Z,9.01
2019-03-31T07:19:55.734Z,9.17
2019-03-31T07:22:24.562Z,9.40
2019-03-31T07:24:53.066Z,9.07
2019-03-31T07:27:21.526Z,9.12
2019-03-31T07:29:50.008Z,9.19
2019-03-31T07:32:18.503Z,9.01
2019-03-31T07:34:46.989Z,9.42
2019-03-31T07:37:15.502Z,9.43
2019-03-31T07:39:46.025Z,9.37
2019-03-31T07:42:14.198Z,9.23
2019-03-31T07:44:42.665Z,9.61
2019-03-31T07:47:11.210Z,9.64
2019-03-31T07:49:39.912Z,9.87
2019-03-31T07:52:08.403Z,9.70
2019-03-31T07:54:36.866Z,9.80
2019-03-31T07:57:06.981Z,9.81
2019-03-31T07:59:35.693Z,9.75
2019-03-31T08:02:04.267Z,9.83
2019-03-31T08:04:32.717Z,9.65
2019-03-31T08:07:01.199Z,9.65
2019-03-31T08:09:29.661Z,9.61
2019-03-31T08:11:58.153Z,9.70
2019-03-31T08:14:26.584Z,9.71
2019-03-31T08:16:55.065Z,9.72
2019-03-31T08:19:23.505Z,9.74
2019-03-31T08:21:51.996Z,9.73
2019-03-31T08:24:20.447Z,9.68
2019-03-31T08:26:48.926Z,9.78
2019-03-31T08:29:17.511Z,9.63
2019-03-31T08:31:45.995Z,9.60
2019-03-31T08:34:14.432Z,9.59
2019-03-31T08:36:42.950Z,9.69
2019-03-31T08:39:11.488Z,9.75
2019-03-31T08:41:39.980Z,10.14
2019-03-31T08:44:08.423Z,10.32
2019-03-31T08:46:36.935Z,10.18
2019-03-31T08:49:05.380Z,10.50
2019-03-31T08:51:33.899Z,10.77
2019-03-31T08:54:02.338Z,11.16
2019-03-31T08:56:30.835Z,11.01
2019-03-31T08:58:59.277Z,11.02
2019-03-31T09:01:27.808Z,10.66
2019-03-31T09:03:56.280Z,10.72
2019-03-31T09:06:24.762Z,10.72
2019-03-31T09:08:53.261Z,10.99
2019-03-31T09:11:23.441Z,10.62
2019-03-31T09:13:51.960Z,10.62
2019-03-31T09:16:20.487Z,10.51
2019-03-31T09:18:48.942Z,10.06
2019-03-31T09:21:17.487Z,10.23
2019-03-31T09:23:45.931Z,10.42
2019-03-31T09:26:14.446Z,10.43
2019-03-31T09:28:42.914Z,10.56
2019-03-31T09:31:11.417Z,10.52
2019-03-31T09:33:39.931Z,10.55
2019-03-31T09:36:15.978Z,10.32
2019-03-31T09:38:38.645Z,10.15
2019-03-31T09:41:07.401Z,10.12
2019-03-31T09:43:35.867Z,9.88
2019-03-31T09:46:04.578Z,10.05
2019-03-31T09:48:33.025Z,10.05
2019-03-31T09:51:01.535Z,10.18
2019-03-31T09:53:29.978Z,10.32
2019-03-31T09:55:58.496Z,10.62
2019-03-31T09:58:27.023Z,10.83
2019-03-31T10:00:56.376Z,11.03
2019-03-31T10:03:24.903Z,10.97
2019-03-31T10:05:53.397Z,11.17
2019-03-31T10:08:22.439Z,11.08
2019-03-31T10:10:50.969Z,11.17
2019-03-31T10:13:19.534Z,11.05
2019-03-31T10:15:47.990Z,10.99
2019-03-31T10:18:18.099Z,10.96
2019-03-31T10:20:46.809Z,10.84
2019-03-31T10:23:15.267Z,10.65
2019-03-31T10:25:43.728Z,10.79
2019-03-31T10:28:12.201Z,10.59
2019-03-31T10:30:40.822Z,10.76
2019-03-31T10:33:09.379Z,11.13
2019-03-31T10:35:37.967Z,11.16
2019-03-31T10:38:06.974Z,11.11
2019-03-31T10:40:35.482Z,12.07
2019-03-31T10:43:04.012Z,13.11
2019-03-31T10:45:32.486Z,12.97
2019-03-31T10:48:00.936Z,13.99
2019-03-31T10:50:29.459Z,14.16
2019-03-31T10:52:57.937Z,13.37
2019-03-31T10:55:26.792Z,13.73
2019-03-31T10:57:55.257Z,13.98
2019-03-31T11:00:31.626Z,12.89
2019-03-31T11:03:00.134Z,12.47
2019-03-31T11:05:28.567Z,13.38
2019-03-31T11:07:57.352Z,13.05
2019-03-31T11:10:25.800Z,12.55
2019-03-31T11:12:54.304Z,12.61
2019-03-31T11:15:22.771Z,12.37
2019-03-31T11:17:51.262Z,13.15
2019-03-31T11:20:19.714Z,13.16
2019-03-31T11:22:55.230Z,15.89
2019-03-31T11:25:27.637Z,14.90
2019-03-31T11:27:53.943Z,14.52
2019-03-31T11:30:22.556Z,13.87
2019-03-31T11:32:51.024Z,12.89
2019-03-31T11:35:19.510Z,12.67
2019-03-31T11:37:47.992Z,12.14
2019-03-31T11:40:16.548Z,12.04
2019-03-31T11:42:45.041Z,14.98
2019-03-31T11:45:13.736Z,13.76
2019-03-31T11:47:42.294Z,12.94
2019-03-31T11:50:11.259Z,13.09
2019-03-31T11:52:39.720Z,16.73
2019-03-31T11:55:08.754Z,19.02
2019-03-31T11:57:37.290Z,19.12
2019-03-31T12:00:09.410Z,18.88
2019-03-31T12:02:43.215Z,18.48
2019-03-31T12:05:11.745Z,17.74
2019-03-31T12:07:47.169Z,18.27
2019-03-31T12:10:13.949Z,16.50
2019-03-31T12:12:42.529Z,16.02
2019-03-31T12:15:11.008Z,16.97
2019-03-31T12:17:39.477Z,16.26
2019-03-31T12:20:09.234Z,14.34
2019-03-31T12:22:38.037Z,18.51
2019-03-31T12:25:08.128Z,14.37
2019-03-31T12:27:37.595Z,17.91
2019-03-31T12:30:08.689Z,21.00
2019-03-31T12:32:38.587Z,22.04
2019-03-31T12:35:07.889Z,21.94
2019-03-31T12:37:42.621Z,23.76
2019-03-31T12:40:08.972Z,23.97
2019-03-31T12:42:37.473Z,24.24
2019-03-31T12:45:06.563Z,25.07
2019-03-31T12:47:35.003Z,23.10
2019-03-31T12:50:04.661Z,25.12
2019-03-31T12:52:46.079Z,23.65
2019-03-31T12:55:03.313Z,22.19
2019-03-31T12:57:31.766Z,20.86
2019-03-31T13:00:00.408Z,17.91
2019-03-31T13:02:28.831Z,19.82
2019-03-31T13:04:57.411Z,23.78
2019-03-31T13:07:25.976Z,24.66
2019-03-31T13:09:54.506Z,24.10
2019-03-31T13:12:22.944Z,24.33
2019-03-31T13:14:51.413Z,25.09
2019-03-31T13:17:19.860Z,25.77
2019-03-31T13:19:48.355Z,25.75
2019-03-31T13:22:16.807Z,25.26
2019-03-31T13:24:47.141Z,24.56
2019-03-31T13:27:18.516Z,25.50
2019-03-31T13:29:47.004Z,23.99
2019-03-31T13:32:15.438Z,22.10
2019-03-31T13:34:44.023Z,23.36
2019-03-31T13:37:12.787Z,22.33
2019-03-31T13:39:41.321Z,21.67
2019-03-31T13:42:09.774Z,23.44
2019-03-31T13:44:38.313Z,23.08
2019-03-31T13:47:06.761Z,21.92
2019-03-31T13:49:35.246Z,20.39
2019-03-31T13:52:03.695Z,19.68
2019-03-31T13:54:32.516Z,19.94
2019-03-31T13:57:00.992Z,20.41
2019-03-31T13:59:30.598Z,18.78
2019-03-31T14:02:00.344Z,18.91
2019-03-31T14:04:29.082Z,17.82
2019-03-31T14:06:57.509Z,18.09
2019-03-31T14:09:25.999Z,18.58
2019-03-31T14:11:54.451Z,17.88
2019-03-31T14:14:22.969Z,19.27
2019-03-31T14:16:51.470Z,17.95
2019-03-31T14:19:19.957Z,16.43
2019-03-31T14:21:48.480Z,16.21
2019-03-31T14:24:17.199Z,15.47
2019-03-31T14:26:47.701Z,15.02
2019-03-31T14:29:15.879Z,15.30
2019-03-31T14:31:44.312Z,15.01
2019-03-31T14:34:12.883Z,15.22
2019-03-31T14:36:41.368Z,15.04
2019-03-31T14:39:10.101Z,14.75
2019-03-31T14:41:38.565Z,14.78
2019-03-31T14:44:07.079Z,14.05
2019-03-31T14:46:35.608Z,14.21
2019-03-31T14:49:04.153Z,14.08
2019-03-31T14:51:32.590Z,14.09
2019-03-31T14:54:01.100Z,13.98
2019-03-31T14:56:29.861Z,13.88
2019-03-31T14:58:58.342Z,14.13
2019-03-31T15:01:26.827Z,13.98
2019-03-31T15:03:55.314Z,14.08
2019-03-31T15:06:23.757Z,13.82
2019-03-31T15:08:54.586Z,13.81
2019-03-31T15:11:22.438Z,13.72
2019-03-31T15:13:50.889Z,13.61
2019-03-31T15:16:19.354Z,13.90
2019-03-31T15:18:47.838Z,13.58
2019-03-31T15:21:16.315Z,13.45
2019-03-31T15:23:44.786Z,13.45
2019-03-31T15:26:13.284Z,13.26
2019-03-31T15:28:45.270Z,13.23
2019-03-31T15:31:12.283Z,13.40
2019-03-31T15:33:40.796Z,13.20
2019-03-31T15:36:09.237Z,13.20
2019-03-31T15:38:37.752Z,13.29
2019-03-31T15:41:20.367Z,13.47
2019-03-31T15:43:36.388Z,13.57
2019-03-31T15:46:04.863Z,13.28
2019-03-31T15:48:33.365Z,12.27
2019-03-31T15:51:01.815Z,12.55
2019-03-31T15:53:30.285Z,12.48
2019-03-31T15:55:58.739Z,12.57
2019-03-31T15:58:27.203Z,12.42
2019-03-31T16:00:55.672Z,12.12
2019-03-31T16:03:24.131Z,12.07
2019-03-31T16:05:52.578Z,11.72
2019-03-31T16:08:21.047Z,11.77
2019-03-31T16:10:49.495Z,11.77
2019-03-31T16:13:17.962Z,11.75
2019-03-31T16:15:46.408Z,11.52
2019-03-31T16:18:14.901Z,11.55
2019-03-31T16:20:43.431Z,11.66
2019-03-31T16:23:11.912Z,11.61
2019-03-31T16:25:45.081Z,11.52
2019-03-31T16:28:13.533Z,11.40
2019-03-31T16:30:42.273Z,11.21
2019-03-31T16:33:10.812Z,11.34
2019-03-31T16:35:39.353Z,11.27
2019-03-31T16:38:07.922Z,11.11
2019-03-31T16:40:36.376Z,11.10
2019-03-31T16:43:04.855Z,11.00
2019-03-31T16:45:33.327Z,10.77
2019-03-31T16:48:01.903Z,10.96
2019-03-31T16:50:30.634Z,10.78
2019-03-31T16:52:59.159Z,10.82
2019-03-31T16:55:27.621Z,10.73
2019-03-31T16:57:56.212Z,10.51
2019-03-31T17:00:24.660Z,10.33
2019-03-31T17:02:53.827Z,10.36
2019-03-31T17:05:22.765Z,10.31
2019-03-31T17:07:51.254Z,10.37
2019-03-31T17:10:19.751Z,10.10
2019-03-31T17:12:48.238Z,10.22
2019-03-31T17:15:16.841Z,10.17
2019-03-31T17:17:45.294Z,10.09
2019-03-31T17:20:14.207Z,9.86
2019-03-31T17:22:43.019Z,9.87
2019-03-31T17:25:11.591Z,9.73
2019-03-31T17:27:40.116Z,9.62
2019-03-31T17:30:09.338Z,9.55
2019-03-31T17:32:37.870Z,9.41
2019-03-31T17:35:06.570Z,9.33
2019-03-31T17:37:35.105Z,9.30
2019-03-31T17:40:06.821Z,9.16
2019-03-31T17:42:35.703Z,9.16
2019-03-31T17:45:06.192Z,9.11
2019-03-31T17:47:34.650Z,9.00
2019-03-31T17:50:03.420Z,8.88
2019-03-31T17:52:31.940Z,8.73
2019-03-31T17:55:00.410Z,8.70
2019-03-31T17:57:28.946Z,8.75
2019-03-31T17:59:57.434Z,8.61
2019-03-31T18:02:25.927Z,8.49
2019-03-31T18:04:54.643Z,8.47
2019-03-31T18:07:23.130Z,8.38
2019-03-31T18:09:51.589Z,8.37
2019-03-31T18:12:20.362Z,8.27
2019-03-31T18:14:48.806Z,8.30
2019-03-31T18:17:17.422Z,8.21
2019-03-31T18:19:45.867Z,8.21
2019-03-31T18:22:16.667Z,8.22
2019-03-31T18:24:44.470Z,8.12
2019-03-31T18:27:13.330Z,8.05
2019-03-31T18:29:44.625Z,8.02
2019-03-31T18:32:13.156Z,7.96
2019-03-31T18:34:41.612Z,7.87
2019-03-31T18:37:10.212Z,7.92
2019-03-31T18:39:38.655Z,7.75
2019-03-31T18:42:07.207Z,7.72
2019-03-31T18:44:35.773Z,7.74
2019-03-31T18:47:04.316Z,7.69
2019-03-31T18:49:32.826Z,7.60
2019-03-31T18:52:01.269Z,7.69
2019-03-31T18:54:34.386Z,7.57
2019-03-31T18:57:19.697Z,7.53
2019-03-31T18:59:53.128Z,7.44
2019-03-31T19:02:25.670Z,7.32
2019-03-31T19:05:07.641Z,7.43
2019-03-31T19:07:43.437Z,7.24
2019-03-31T19:10:31.734Z,7.26
2019-03-31T19:13:01.902Z,7.24
2019-03-31T19:15:32.197Z,7.12
2019-03-31T19:18:11.453Z,7.09
2019-03-31T19:21:10.498Z,7.11
2019-03-31T19:23:36.031Z,7.05
2019-03-31T19:26:20.130Z,6.98
2019-03-31T19:29:02.340Z,6.88
2019-03-31T19:31:44.436Z,6.87
2019-03-31T19:34:20.820Z,6.73
2019-03-31T19:37:06.895Z,6.61
2019-03-31T19:39:53.023Z,6.57
2019-03-31T19:42:23.149Z,6.62
2019-03-31T19:44:55.685Z,6.53
2019-03-31T19:47:31.674Z,6.44
2019-03-31T19:50:13.769Z,6.45
2019-03-31T19:52:46.633Z,6.37
2019-03-31T19:55:16.743Z,6.31
2019-03-31T19:57:46.844Z,6.24
2019-03-31T20:00:19.900Z,6.24
2019-03-31T20:03:07.921Z,6.23
2019-03-31T20:05:43.612Z,6.24
2019-03-31T20:08:13.735Z,6.20
2019-03-31T20:10:49.487Z,6.20
2019-03-31T20:13:37.361Z,6.18
2019-03-31T20:16:23.500Z,6.13
2019-03-31T20:19:02.458Z,5.99
2019-03-31T20:21:32.728Z,6.01
2019-03-31T20:24:08.611Z,5.95
2019-03-31T20:26:53.525Z,6.05
2019-03-31T20:29:29.055Z,5.74
2019-03-31T20:32:02.190Z,5.76
2019-03-31T20:34:48.520Z,5.57
2019-03-31T20:37:30.745Z,5.73
2019-03-31T20:40:15.776Z,5.70
2019-03-31T20:43:03.655Z,5.71
2019-03-31T20:45:32.172Z,5.50
2019-03-31T20:48:00.616Z,5.48
2019-03-31T20:50:29.178Z,5.49
2019-03-31T20:52:57.607Z,5.37
2019-03-31T20:55:26.122Z,5.25
2019-03-31T20:57:54.551Z,5.31
2019-03-31T21:00:23.078Z,5.33
2019-03-31T21:02:51.513Z,5.19
2019-03-31T21:05:20.014Z,5.20
2019-03-31T21:07:48.437Z,5.00
2019-03-31T21:10:16.977Z,4.97
2019-03-31T21:12:45.451Z,5.03
2019-03-31T21:15:13.937Z,4.91
2019-03-31T21:17:42.398Z,4.86
2019-03-31T21:20:11.013Z,4.69
2019-03-31T21:22:39.437Z,4.82
2019-03-31T21:25:08.092Z,4.79
2019-03-31T21:27:36.522Z,4.84
2019-03-31T21:30:06.438Z,4.57
2019-03-31T21:32:34.873Z,4.54
2019-03-31T21:35:03.925Z,4.53
2019-03-31T21:37:32.353Z,4.51
2019-03-31T21:40:00.853Z,4.62
2019-03-31T21:42:29.282Z,4.73
2019-03-31T21:44:57.745Z,4.50
2019-03-31T21:47:26.185Z,4.57
2019-03-31T21:49:54.708Z,4.57
2019-03-31T21:52:23.187Z,4.66
2019-03-31T21:54:51.637Z,4.72
2019-03-31T21:57:20.097Z,4.73
2019-03-31T21:59:48.563Z,4.71
2019-03-31T22:02:17.073Z,4.73
2019-03-31T22:04:45.854Z,4.69
2019-03-31T22:07:14.283Z,4.62
2019-03-31T22:09:42.805Z,4.63
2019-03-31T22:12:11.276Z,4.48
2019-03-31T22:14:39.846Z,4.44
2019-03-31T22:17:08.293Z,4.37
2019-03-31T22:19:36.769Z,4.44
2019-03-31T22:22:05.204Z,4.24
2019-03-31T22:24:33.687Z,4.02
2019-03-31T22:27:02.103Z,3.88
2019-03-31T22:29:30.564Z,3.71
2019-03-31T22:31:58.985Z,3.58
2019-03-31T22:34:27.476Z,3.40
2019-03-31T22:36:55.929Z,3.27
2019-03-31T22:39:24.398Z,3.20
2019-03-31T22:41:52.923Z,3.19
2019-03-31T22:44:21.382Z,3.00
2019-03-31T22:46:54.370Z,2.91
2019-03-31T22:49:20.265Z,2.94
2019-03-31T22:51:48.735Z,3.05
2019-03-31T22:54:17.234Z,2.95
2019-03-31T22:56:45.696Z,2.81
2019-03-31T22:59:14.167Z,2.72
2019-03-31T23:01:42.606Z,2.80
2019-03-31T23:04:11.133Z,2.53
2019-03-31T23:06:39.574Z,2.46
2019-03-31T23:09:08.217Z,2.34
2019-03-31T23:11:36.683Z,2.26
2019-03-31T23:14:05.193Z,2.30
2019-03-31T23:16:33.659Z,2.25
2019-03-31T23:19:02.215Z,2.31
2019-03-31T23:21:30.678Z,2.19
2019-03-31T23:23:59.143Z,2.22
2019-03-31T23:26:27.565Z,2.04
2019-03-31T23:28:56.089Z,1.98
2019-03-31T23:31:24.528Z,2.01
2019-03-31T23:33:52.992Z,1.90
2019-03-31T23:36:21.409Z,1.80
2019-03-31T23:38:49.914Z,1.86
2019-03-31T23:41:18.355Z,1.87
2019-03-31T23:43:46.844Z,1.66
2019-03-31T23:46:15.271Z,1.74
2019-03-31T23:48:43.777Z,1.64
2019-03-31T23:51:12.245Z,1.48
2019-03-31T23:53:40.699Z,1.48
2019-03-31T23:56:09.149Z,1.52
2019-03-31T23:58:37.604Z,1.62
